Map

Track Data

SID SEASON NUMBER BASIN SUBBASIN NAME ISO_TIME NATURE LAT LON WMO_WIND WMO_PRES WMO_AGENCY TRACK_TYPE DIST2LAND LANDFALL IFLAG USA_AGENCY USA_ATCF_ID USA_LAT USA_LON USA_RECORD USA_STATUS USA_WIND USA_PRES USA_SSHS USA_R34_NE USA_R34_SE USA_R34_SW USA_R34_NW USA_R50_NE USA_R50_SE USA_R50_SW USA_R50_NW USA_R64_NE USA_R64_SE USA_R64_SW USA_R64_NW USA_POCI USA_ROCI USA_RMW USA_EYE TOKYO_LAT TOKYO_LON TOKYO_GRADE TOKYO_WIND TOKYO_PRES TOKYO_R50_DIR TOKYO_R50_LONG TOKYO_R50_SHORT TOKYO_R30_DIR TOKYO_R30_LONG TOKYO_R30_SHORT TOKYO_LAND CMA_LAT CMA_LON CMA_CAT CMA_WIND CMA_PRES HKO_LAT HKO_LON HKO_CAT HKO_WIND HKO_PRES NEWDELHI_LAT NEWDELHI_LON NEWDELHI_GRADE NEWDELHI_WIND NEWDELHI_PRES NEWDELHI_CI NEWDELHI_DP NEWDELHI_POCI REUNION_LAT REUNION_LON REUNION_TYPE REUNION_WIND REUNION_PRES REUNION_TNUM REUNION_CI REUNION_RMW REUNION_R34_NE REUNION_R34_SE REUNION_R34_SW REUNION_R34_NW REUNION_R50_NE REUNION_R50_SE REUNION_R50_SW REUNION_R50_NW REUNION_R64_NE REUNION_R64_SE REUNION_R64_SW REUNION_R64_NW BOM_LAT BOM_LON BOM_TYPE BOM_WIND BOM_PRES BOM_TNUM BOM_CI BOM_RMW BOM_R34_NE BOM_R34_SE BOM_R34_SW BOM_R34_NW BOM_R50_NE BOM_R50_SE BOM_R50_SW BOM_R50_NW BOM_R64_NE BOM_R64_SE BOM_R64_SW BOM_R64_NW BOM_ROCI BOM_POCI BOM_EYE BOM_POS_METHOD BOM_PRES_METHOD NADI_LAT NADI_LON NADI_CAT NADI_WIND NADI_PRES WELLINGTON_LAT WELLINGTON_LON WELLINGTON_WIND WELLINGTON_PRES DS824_LAT DS824_LON DS824_STAGE DS824_WIND DS824_PRES TD9636_LAT TD9636_LON TD9636_STAGE TD9636_WIND TD9636_PRES TD9635_LAT TD9635_LON TD9635_WIND TD9635_PRES TD9635_ROCI NEUMANN_LAT NEUMANN_LON NEUMANN_CLASS NEUMANN_WIND NEUMANN_PRES MLC_LAT MLC_LON MLC_CLASS MLC_WIND MLC_PRES USA_GUST BOM_GUST BOM_GUST_PER REUNION_GUST REUNION_GUST_PER USA_SEAHGT USA_SEARAD_NE USA_SEARAD_SE USA_SEARAD_SW USA_SEARAD_NW STORM_SPEED STORM_DIR
1947103N10075 1947 31 NI AS NOT_NAMED 1947-04-12 18:00:00 TS 9.50000 74.5000 main 194 191 O________O____ jtwc_io IO031947 9.50000 74.5000 -1 9.50000 74.5000 TC 3 321
1947103N10075 1947 31 NI AS NOT_NAMED 1947-04-12 21:00:00 TS 9.60250 74.4175 main 202 200 P________P____ IO031947 9.60250 74.4175 -1 9.60250 74.4175 TC 3 315
1947103N10075 1947 31 NI AS NOT_NAMED 1947-04-13 00:00:00 TS 9.70000 74.3000 main 211 211 O________O____ jtwc_io IO031947 9.70000 74.3000 -1 9.70000 74.3000 TC 25 4 303
1947103N10075 1947 31 NI AS NOT_NAMED 1947-04-13 03:00:00 TS 9.79333 74.1200 main 226 226 P________PO___ IO031947 9.79249 74.1225 -1 9.79249 74.1225 TC 25 9.80000 74.1000 1 5 298
1947103N10075 1947 31 NI AS NOT_NAMED 1947-04-13 06:00:00 TS 9.91004 73.8923 main 241 241 O________OP___ jtwc_io IO031947 9.90000 73.9000 -1 9.90000 73.9000 TC 25 9.95018 73.8613 1 5 299
1947103N10075 1947 31 NI AS NOT_NAMED 1947-04-13 09:00:00 TS 10.0528 73.6440 main 263 263 P________PP___ IO031947 10.0350 73.6500 -1 10.0350 73.6500 TC 25 10.1002 73.6279 1 6 302
1947103N10075 1947 31 NI AS NOT_NAMED 1947-04-13 12:00:00 TS 10.2167 73.4019 main 281 273 O________OP___ jtwc_io IO031947 10.2000 73.4000 -1 10.2000 73.4000 TC 25 10.2501 73.4056 1 6 308
1947103N10075 1947 31 NI AS NOT_NAMED 1947-04-13 15:00:00 TS 10.3950 73.1950 main 282 282 P________PO___ IO031947 10.3925 73.1925 -1 10.3925 73.1925 TC 25 10.4000 73.2000 1 5 313
1947103N10075 1947 31 NI AS NOT_NAMED 1947-04-13 18:00:00 TS 10.5843 73.0042 main 286 286 O________OP___ jtwc_io IO031947 10.6000 73.0000 -1 10.6000 73.0000 TC 25 10.5530 73.0127 1 5 315
1947103N10075 1947 31 NI AS NOT_NAMED 1947-04-13 21:00:00 TS 10.7699 72.8147 main 294 294 P________PP___ IO031947 10.7925 72.8074 -1 10.7925 72.8074 TC 25 10.7248 72.8294 1 6 315
1947103N10075 1947 31 NI AS NOT_NAMED 1947-04-14 00:00:00 TS 10.9781 72.6104 main 303 303 O________OP___ jtwc_io IO031947 11.0000 72.6000 -1 11.0000 72.6000 TC 25 10.9342 72.6313 1 6 316
1947103N10075 1947 31 NI AS NOT_NAMED 1947-04-14 03:00:00 TS 11.2133 72.3816 main 313 313 P________PO___ IO031947 11.2200 72.3724 -1 11.2200 72.3724 TC 25 11.2000 72.4000 1 7 317
1947103N10075 1947 31 NI AS NOT_NAMED 1947-04-14 06:00:00 TS 11.5088 72.0983 main 327 327 O________OP___ jtwc_io IO031947 11.5000 72.1000 -1 11.5000 72.1000 TC 25 11.5265 72.0949 1 9 317
1947103N10075 1947 31 NI AS NOT_NAMED 1947-04-14 09:00:00 TS 11.8785 71.7576 main 341 341 P________PP___ IO031947 11.8625 71.7575 -1 11.8625 71.7575 TC 30 11.9103 71.7578 1 11 320
1947103N10075 1947 31 NI AS NOT_NAMED 1947-04-14 12:00:00 TS 12.3130 71.4056 main 373 371 O________OP___ jtwc_io IO031947 12.3000 71.4000 -1 12.3000 71.4000 TC 35 12.3390 71.4167 1 11 324
1947103N10075 1947 31 NI AS NOT_NAMED 1947-04-14 15:00:00 TS 12.7900 71.0850 main 393 387 P________PO___ IO031947 12.7850 71.0775 -1 12.7850 71.0775 TC 35 12.8000 71.1000 2 11 329
1947103N10075 1947 31 NI AS NOT_NAMED 1947-04-14 18:00:00 TS 13.2917 70.8086 main 390 383 O________OP___ jtwc_io IO031947 13.3000 70.8000 -1 13.3000 70.8000 TC 35 13.2752 70.8259 2 11 334
1947103N10075 1947 31 NI AS NOT_NAMED 1947-04-14 21:00:00 TS 13.7924 70.5841 main 384 379 P________PP___ IO031947 13.7999 70.5848 -1 13.7999 70.5848 TC 35 13.7774 70.5825 2 11 338
1947103N10075 1947 31 NI AS NOT_NAMED 1947-04-15 00:00:00 TS 14.2970 70.3910 main 383 379 O________OP___ jtwc_io IO031947 14.3000 70.4000 -1 14.3000 70.4000 TC 35 14.2909 70.3729 2 11 339
1947103N10075 1947 31 NI AS NOT_NAMED 1947-04-15 03:00:00 TS 14.8000 70.1900 main 382 372 P________PO___ IO031947 14.8000 70.1850 -1 14.8000 70.1850 TC 35 14.8000 70.2000 3 11 340
1947103N10075 1947 31 NI AS NOT_NAMED 1947-04-15 06:00:00 TS 15.3021 70.0159 main 377 370 O________OP___ jtwc_io IO031947 15.3000 70.0000 -1 15.3000 70.0000 TC 35 15.3064 70.0476 3 11 344
1947103N10075 1947 31 NI AS NOT_NAMED 1947-04-15 09:00:00 TS 15.8108 69.8907 main 371 367 P________PP___ IO031947 15.8150 69.8700 -1 15.8150 69.8700 TC 50 15.8023 69.9323 3 10 349
1947103N10075 1947 31 NI AS NOT_NAMED 1947-04-15 12:00:00 TS 16.2907 69.8169 main 374 364 O________OP___ jtwc_io IO031947 16.3000 69.8000 -1 16.3000 69.8000 TC 65 16.2721 69.8509 3 9 354
1947103N10075 1947 31 NI AS NOT_NAMED 1947-04-15 15:00:00 TS 16.7200 69.7899 main 364 350 P________PO___ IO031947 16.7300 69.7849 -1 16.7300 69.7849 TC 65 16.7000 69.8000 4 8 0
1947103N10075 1947 31 NI AS NOT_NAMED 1947-04-15 18:00:00 TS 17.0921 69.7890 main 350 340 O________OP___ jtwc_io IO031947 17.1000 69.8000 -1 17.1000 69.8000 TC 65 17.0762 69.7669 4 7 0
1947103N10075 1947 31 NI AS NOT_NAMED 1947-04-15 21:00:00 TS 17.4133 69.7874 main 340 332 P________PP___ IO031947 17.4150 69.8000 -1 17.4150 69.8000 TC 65 17.4099 69.7622 4 6 2
1947103N10075 1947 31 NI AS NOT_NAMED 1947-04-16 00:00:00 TS 17.7046 69.7921 main 332 319 O________OP___ jtwc_io IO031947 17.7000 69.8000 -1 17.7000 69.8000 TC 65 17.7137 69.7764 4 6 1
1947103N10075 1947 31 NI AS NOT_NAMED 1947-04-16 03:00:00 TS 18.0000 69.7950 main 319 288 P________PO___ IO031947 18.0000 69.7925 -1 18.0000 69.7925 TC 65 18.0000 69.8000 4 6 1
1947103N10075 1947 31 NI AS NOT_NAMED 1947-04-16 06:00:00 TS 18.2992 69.8032 main 288 257 O________OP___ jtwc_io IO031947 18.3000 69.8000 -1 18.3000 69.8000 TC 65 18.2975 69.8097 4 6 5
1947103N10075 1947 31 NI AS NOT_NAMED 1947-04-16 09:00:00 TS 18.6033 69.8425 main 257 222 P________PP___ IO031947 18.6150 69.8499 -1 18.6150 69.8499 TC 65 18.5800 69.8276 4 6 7
1947103N10075 1947 31 NI AS NOT_NAMED 1947-04-16 12:00:00 TS 18.8825 69.8856 main 222 202 O________OP___ jtwc_io IO031947 18.9000 69.9000 -1 18.9000 69.9000 TC 65 18.8475 69.8566 4 5 7
1947103N10075 1947 31 NI AS NOT_NAMED 1947-04-16 15:00:00 TS 19.1050 69.9000 main 202 182 P________PO___ IO031947 19.1075 69.9001 -1 19.1075 69.9001 TC 65 19.1000 69.9000 4 4 0
1947103N10075 1947 31 NI AS NOT_NAMED 1947-04-16 18:00:00 TS 19.3131 69.9122 main 182 163 O________OP___ jtwc_io IO031947 19.3000 69.9000 -1 19.3000 69.9000 TC 65 19.3393 69.9365 4 5 4
1947103N10075 1947 31 NI AS NOT_NAMED 1947-04-16 21:00:00 TS 19.5549 69.9435 main 154 130 P________PP___ IO031947 19.5500 69.9201 -1 19.5500 69.9201 TC 65 19.5648 69.9904 4 5 12
1947103N10075 1947 31 NI AS NOT_NAMED 1947-04-17 00:00:00 TS 19.7943 70.0247 main 130 100 O________OP___ jtwc_io IO031947 19.8000 70.0000 -1 19.8000 70.0000 TC 65 19.7830 70.0741 4 5 27
1947103N10075 1947 31 NI AS NOT_NAMED 1947-04-17 03:00:00 TS 20.0000 70.1800 main 100 69 P________PO___ IO031947 20.0000 70.1700 -1 20.0000 70.1700 TC 65 20.0000 70.2000 4 5 40
1947103N10075 1947 31 NI AS NOT_NAMED 1947-04-17 06:00:00 TS 20.2111 70.3939 main 69 39 O________OP___ jtwc_io IO031947 20.2000 70.4000 -1 20.2000 70.4000 TC 65 20.2332 70.3817 4 6 43
1947103N10075 1947 31 NI AS NOT_NAMED 1947-04-17 09:00:00 TS 20.4551 70.6349 main 30 0 P________PP___ IO031947 20.4500 70.6499 -1 20.4500 70.6499 TC 65 20.4651 70.6047 4 7 43
1947103N10075 1947 31 NI AS NOT_NAMED 1947-04-17 12:00:00 TS 20.6965 70.8835 main 10 0 O________OP___ jtwc_io IO031947 20.7000 70.9000 -1 20.7000 70.9000 TC 65 20.6895 70.8505 4 6 44
1947103N10075 1947 31 NI AS NOT_NAMED 1947-04-17 15:00:00 TS 20.9099 71.1001 main 0 0 P________PO___ IO031947 20.9149 71.1001 -1 20.9149 71.1001 TC 50 20.9000 71.1000 4 6 45
1947103N10075 1947 31 NI AS NOT_NAMED 1947-04-17 18:00:00 TS 21.0970 71.3153 main 0 0 O________OP___ jtwc_io IO031947 21.1000 71.3000 -1 21.1000 71.3000 TC 35 21.0925 71.3381 4 5 50
1947103N10075 1947 31 NI AS NOT_NAMED 1947-04-17 21:00:00 TS 21.2630 71.5492 main 0 0 P________PP___ IO031947 21.2576 71.5374 -1 21.2576 71.5374 TC 30 21.2701 71.5649 4 6 54
1947103N10075 1947 31 NI AS NOT_NAMED 1947-04-18 00:00:00 TS 21.4188 71.7921 main 0 0 O________OP___ jtwc_io IO031947 21.4000 71.8000 -1 21.4000 71.8000 TC 25 21.4376 71.7842 4 5 51
1947103N10075 1947 31 NI AS NOT_NAMED 1947-04-18 03:00:00 NR 21.6000 72.0000 main 0 __________O___ IO031947 -1 TC 21.6000 72.0000 1 5 47

About IBTrACS Database

This database is a web-friendly format of International Best Track Archive for Climate Stewardship (IBTrACS), a global best track data archive curated by NOAA dating back to 1842.

Updated: 2021-11-26